Belen, Mississippi
Current Conditions -  °F | °C
As of 5:35 PM on Monday 22 Dec 2014 (Local Time) from KCKM Reporting Station
Overcast Overcast  
Wind Chill: 59°   Ceiling: 1800
Heat Index: 59°   Visibility: 10mi
Dew Point: 57°   Wind: 8mph
Humidity: 94%   Direction: 150°SSE
Pressure: 29.63"   Gusts: NA
Location:  34.27°N, 90.35°W
Report Text: KCKM 222335Z AUTO 15007KT 10SM BKN018 BKN027 OVC070 15/14 A2963 RMK AO1
Loading
Personal Weather Stations






























Interactive Weather Map New forecast layout! Learn more

10-Day Weather Forecast

Advertisements
Track Severe Weather on mobile